Main page
METAR-TAF:

METAR-TAF

Airports :

Al Najaf International Airport

Najaf, Iraq

latitude: 31-59-23N, longitude: 44-24-15E, elevation: 31 m

Current weather observation

The report was made 1 hour and 8 minutes ago, at 21:00 UTC
Wind 3 kt from the Southeast
Temperature 15°C
Humidity 77%
Pressure 1010 hPa
Visibility: 8000 m

METAR: ORNI 292100Z 13003KT 8000 NSC 15/11 Q1010 NOSIG

Time: 01:08 (22:08 UTC)

Forecast

The report was made 5 hours and 8 minutes ago, at 17:00 UTC
Forecast valid from 29 at 18 UTC to 30 at 18 UTC
Wind 8 kt from the West
Visibility: 8000 m

TAF: ORNI 291700Z 2918/3018 28008KT 8000 NSC

Weather observations and forecasts of more than 4000 airports (METAR and TAF reports).

The available stations are represented by yellow and red dots on the map.

Hover mouse over dot to see the name of the station.

Then click to see weather observations and forecasts.

To change the map : click on the green buttons with a black cross to zoom in, on the green button with a dash to zoom out, or on the green arrows for adjacent maps.


METAR-TAF: